Orangeburg Municipal Airport
KOGB : now visible

Airfield :











YOU CAN JOIN US ON...

 
LOGIN :

Register | Disclaimer

   EN    FR    IT 

 









Legend :    VFR   Marginal VFR   IFR   Intensive IFR   Very Intensive IFR
Visi :
Ceiling :
>= 8 km
>= 3000ft
5 to 8 km
1000 to 3000 ft
1500m to 5 km
500 to 1000 ft
800 to 1500m
200 to 500 ft
< 800m
< 200 ft
Symbols :   Thunderstorms  Fog  Heavy snow  Heavy precipitations  Wind > 20 kt







- Airport Elevation : 195 ft


KOGB - Orangeburg Municipal

CURRENT METAR :
  • 220653Z AUTO 20005KT 10SM CLR 25/22 A3001 RMK AO2 SLP158 T02500222 $

EXPIRED METARs :
  • 220553Z AUTO 19005KT 10SM CLR 26/22 A3002 RMK AO2 SLP162 T02560222 10322 20256 58006 $
  • 220453Z AUTO 19006KT 10SM CLR 26/22 A3003 RMK AO2 SLP168 T02610222 403500233 $

TAF KOGB
Valid from the 22 at 06:00 until the 23 at 06:00 UTC


220520Z 2206/2306 20006KT P6SM SKC
FM221500 23010KT P6SM SCT060 SCT250
FM230100 19009KT P6SM BKN200
KZJX FIR / North America



MET'MAP, your aeronautical weather chart ! - Copyright ORBIFLY December 2007 - Disclaimer

ORBIFLY MET'MAP TEAM :

Programming & Development : Alexandra Zaïnal
Concept & Development : Baudouin d'Aumeries
Co-Development & Prog : Marc-Olivier Méhu
Technical & hardware support : Manuel Goepfert

Contact : metmap@orbifly.com




SOURCES & CREDITS :

   NOAA       Earth
Advisory